Time;durP1;ratioP1;P1;durP2;ratioP2;P2;SDS_P1;SDS_P2;PMS_P1;PMS_P2;Temp;Humidity;BMP_temperature;BMP_pressure;BME280_temperature;BME280_humidity;BME280_pressure;Samples;Min_cycle;Max_cycle;Signal;HPM_P1;HPM_P2
2023/01/26 00:00:04;;;;;;;31.00;18.90;;;;;;;-0.60;72.86;97803.97;108634;1257;101093;-76
2023/01/26 00:02:52;;;;;;;33.80;19.50;;;;;;;-0.62;72.91;97795.83;108852;1251;101398;-76
2023/01/26 00:05:21;;;;;;;32.00;19.10;;;;;;;-0.63;72.79;97791.99;108826;1251;95838;-75
2023/01/26 00:07:49;;;;;;;31.20;16.60;;;;;;;-0.65;72.77;97785.66;108867;1251;96394;-76
2023/01/26 00:10:17;;;;;;;27.10;16.00;;;;;;;-0.67;72.75;97785.10;108900;1250;102354;-76
2023/01/26 00:12:45;;;;;;;25.70;15.60;;;;;;;-0.67;72.70;97785.70;108932;1251;101677;-76
2023/01/26 00:15:13;;;;;;;24.70;14.50;;;;;;;-0.70;72.65;97789.42;108871;1251;100178;-75
2023/01/26 00:17:41;;;;;;;24.30;14.40;;;;;;;-0.70;72.73;97787.69;108846;1251;95531;-75
2023/01/26 00:20:30;;;;;;;20.30;12.90;;;;;;;-0.71;72.67;97789.54;108573;1251;96790;-75
2023/01/26 00:22:58;;;;;;;20.80;13.00;;;;;;;-0.77;72.73;97792.15;108558;1257;103763;-76
2023/01/26 00:25:26;;;;;;;24.80;14.40;;;;;;;-0.77;72.85;97784.60;108567;1255;100946;-75
2023/01/26 00:27:55;;;;;;;24.50;14.20;;;;;;;-0.77;72.88;97780.29;108395;1256;99886;-75
2023/01/26 00:30:23;;;;;;;25.60;14.40;;;;;;;-0.75;73.05;97777.36;108285;1256;96025;-75
2023/01/26 00:32:51;;;;;;;25.30;14.20;;;;;;;-0.75;73.07;97779.10;108345;1256;96085;-75
2023/01/26 00:35:19;;;;;;;21.40;12.70;;;;;;;-0.76;73.05;97780.06;108311;1256;103459;-75
2023/01/26 00:37:47;;;;;;;22.60;12.80;;;;;;;-0.75;73.13;97779.65;108520;1256;101024;-75
2023/01/26 00:40:16;;;;;;;24.10;13.80;;;;;;;-0.77;73.06;97778.75;108486;1257;100210;-75
2023/01/26 00:42:44;;;;;;;24.40;13.60;;;;;;;-0.78;73.08;97776.20;108242;1262;95695;-76
2023/01/26 00:45:12;;;;;;;27.40;14.90;;;;;;;-0.80;73.11;97775.80;108583;1255;96359;-76
2023/01/26 00:47:40;;;;;;;24.00;13.50;;;;;;;-0.80;73.19;97766.27;108382;1256;207914;-75
2023/01/26 00:50:10;;;;;;;26.30;14.70;;;;;;;-0.81;73.22;97764.04;108514;1256;101671;-75
2023/01/26 00:52:38;;;;;;;26.90;15.00;;;;;;;-0.80;73.20;97762.54;108543;1255;100141;-75
2023/01/26 00:55:06;;;;;;;26.40;15.20;;;;;;;-0.78;73.33;97760.94;108516;1256;95848;-75
2023/01/26 00:57:36;;;;;;;29.50;14.80;;;;;;;-0.76;73.31;97756.60;108577;1256;96030;-75
2023/01/26 01:00:06;;;;;;;24.80;14.40;;;;;;;-0.75;73.35;97750.80;108646;1251;104106;-75
2023/01/26 01:02:34;;;;;;;25.80;14.20;;;;;;;-0.74;73.38;97751.48;108893;1250;101023;-75
2023/01/26 01:05:03;;;;;;;25.10;14.00;;;;;;;-0.72;73.31;97747.23;108814;1251;99869;-76
2023/01/26 01:07:31;;;;;;;28.70;14.90;;;;;;;-0.72;73.31;97747.50;108553;1251;95645;-75
2023/01/26 01:09:59;;;;;;;27.60;14.70;;;;;;;-0.72;73.33;97744.09;108296;1260;96693;-76
2023/01/26 01:12:28;;;;;;;27.30;15.50;;;;;;;-0.71;73.43;97740.23;108830;1251;103529;-75
2023/01/26 01:14:56;;;;;;;29.10;15.40;;;;;;;-0.71;73.40;97736.31;108550;1250;101388;-76
2023/01/26 01:17:24;;;;;;;30.50;15.90;;;;;;;-0.74;73.41;97732.88;108853;1251;99761;-76
2023/01/26 01:19:53;;;;;;;26.30;16.20;;;;;;;-0.75;73.47;97730.67;108839;1251;95575;-75
2023/01/26 01:22:21;;;;;;;30.40;16.70;;;;;;;-0.76;73.43;97727.91;108553;1251;95842;-75
2023/01/26 01:24:49;;;;;;;26.60;15.10;;;;;;;-0.75;73.52;97725.33;108896;1250;103657;-75
2023/01/26 01:27:17;;;;;;;26.80;14.60;;;;;;;-0.73;73.55;97721.70;108903;1251;110372;-75
2023/01/26 01:29:45;;;;;;;28.40;14.30;;;;;;;-0.74;73.47;97715.59;108887;1251;99876;-76
2023/01/26 01:32:13;;;;;;;20.50;12.70;;;;;;;-0.76;73.50;97711.17;108888;1251;95568;-75
2023/01/26 01:34:41;;;;;;;20.20;12.60;;;;;;;-0.76;73.46;97707.08;108891;1251;96007;-75
2023/01/26 01:37:10;;;;;;;22.10;13.10;;;;;;;-0.75;73.43;97708.39;108820;1251;103555;-75
2023/01/26 01:39:38;;;;;;;23.80;13.20;;;;;;;-0.76;73.57;97709.75;108539;1255;101343;-75
2023/01/26 01:42:06;;;;;;;22.60;13.20;;;;;;;-0.76;73.55;97711.87;108851;1251;99949;-75
2023/01/26 01:44:36;;;;;;;21.70;13.40;;;;;;;-0.76;73.56;97706.73;108882;1251;95578;-75
2023/01/26 01:47:10;;;;;;;21.20;11.60;;;;;;;-0.76;73.60;97700.90;108904;1251;96006;-75
2023/01/26 01:49:56;;;;;;;24.50;13.00;;;;;;;-0.77;73.46;97695.90;108834;1251;111212;-75
2023/01/26 01:52:28;;;;;;;23.40;13.00;;;;;;;-0.81;73.46;97694.77;108856;1251;101120;-77
2023/01/26 01:55:06;;;;;;;21.30;12.10;;;;;;;-0.81;73.58;97694.98;108846;1251;100081;-77
2023/01/26 01:57:47;;;;;;;19.80;11.80;;;;;;;-0.88;73.58;97689.08;108872;1251;95595;-75
2023/01/26 02:00:18;;;;;;;23.60;13.90;;;;;;;-0.91;73.72;97686.88;108584;1252;96022;-77
2023/01/26 02:03:09;;;;;;;17.40;12.50;;;;;;;-0.91;73.72;97685.05;108871;1251;103294;-75
2023/01/26 02:05:46;;;;;;;22.60;12.80;;;;;;;-0.87;73.82;97680.35;108899;1251;101121;-75
2023/01/26 02:08:16;;;;;;;22.40;12.70;;;;;;;-0.85;73.89;97672.52;108828;1253;99503;-76
2023/01/26 02:10:49;;;;;;;21.90;12.70;;;;;;;-0.82;73.98;97668.41;108812;1251;95949;-75
2023/01/26 02:13:19;;;;;;;21.10;12.80;;;;;;;-0.79;73.84;97671.65;108865;1252;96115;-76
2023/01/26 02:15:48;;;;;;;21.20;12.60;;;;;;;-0.76;73.92;97672.42;108528;1252;104669;-77
2023/01/26 02:18:17;;;;;;;23.40;12.60;;;;;;;-0.74;73.98;97669.83;108843;1251;101848;-77
2023/01/26 02:20:59;;;;;;;20.90;12.70;;;;;;;-0.76;74.09;97663.80;108793;1251;98947;-75
2023/01/26 02:23:59;;;;;;;23.10;13.90;;;;;;;-0.76;74.09;97659.39;108854;1251;95589;-76
2023/01/26 02:26:29;;;;;;;22.20;13.20;;;;;;;-0.74;73.98;97657.25;108923;1251;95903;-77
2023/01/26 02:28:58;;;;;;;24.40;14.00;;;;;;;-0.72;73.87;97658.86;108629;1253;103638;-75
2023/01/26 02:31:27;;;;;;;22.90;13.70;;;;;;;-0.72;73.81;97657.07;108864;1251;101281;-77
2023/01/26 02:33:55;;;;;;;23.00;14.30;;;;;;;-0.72;73.81;97654.92;108571;1251;100145;-75
2023/01/26 02:36:26;;;;;;;25.90;14.60;;;;;;;-0.71;73.73;97655.79;108840;1251;95584;-77
2023/01/26 02:39:21;;;;;;;23.00;14.20;;;;;;;-0.71;73.79;97652.77;108810;1252;96065;-76
2023/01/26 02:44:37;;;;;;;23.40;15.00;;;;;;;-0.74;73.73;97654.29;108618;1254;101324;-76
2023/01/26 02:47:17;;;;;;;24.00;14.90;;;;;;;-0.71;73.78;97658.95;108863;1251;100095;-76
2023/01/26 02:49:49;;;;;;;25.30;14.60;;;;;;;-0.70;73.67;97661.31;108826;1251;95603;-75
2023/01/26 02:52:21;;;;;;;25.90;14.60;;;;;;;-0.70;73.66;97661.65;108882;1251;95561;-76
2023/01/26 02:57:35;;;;;;;24.20;15.40;;;;;;;-0.70;73.71;97666.30;108850;1251;101625;-76
2023/01/26 03:00:06;;;;;;;25.10;14.30;;;;;;;-0.71;73.88;97663.32;108366;1252;99469;-76
2023/01/26 03:02:34;;;;;;;26.20;15.30;;;;;;;-0.70;74.02;97661.11;108349;1252;96224;-76
2023/01/26 03:05:03;;;;;;;26.00;15.10;;;;;;;-0.70;73.87;97656.18;108554;1252;96076;-77
2023/01/26 03:07:31;;;;;;;28.40;16.80;;;;;;;-0.68;73.85;97652.67;108819;1252;103760;-77
2023/01/26 03:10:00;;;;;;;22.40;14.80;;;;;;;-0.68;73.58;97647.40;108827;1251;101303;-75
2023/01/26 03:12:28;;;;;;;23.40;14.50;;;;;;;-0.74;73.41;97643.98;108825;1251;100293;-76
2023/01/26 03:17:38;;;;;;;24.70;15.10;;;;;;;-0.78;73.53;97635.15;108823;1251;95932;-76
2023/01/26 03:28:25;;;;;;;28.70;16.90;;;;;;;-0.77;73.37;97633.98;108854;1251;95858;-75
2023/01/26 03:30:56;;;;;;;24.00;14.60;;;;;;;-0.79;73.23;97631.33;108881;1251;96006;-75
2023/01/26 03:33:25;;;;;;;22.80;14.30;;;;;;;-0.81;73.07;97630.31;108764;1254;103539;-76
2023/01/26 03:35:54;;;;;;;23.90;14.00;;;;;;;-0.90;72.98;97629.84;108899;1251;101285;-76
2023/01/26 03:38:23;;;;;;;23.20;14.60;;;;;;;-0.95;73.05;97628.20;108857;1251;99834;-74
2023/01/26 03:57:29;;;;;;;21.60;13.90;;;;;;;-1.07;72.93;97628.55;108281;1259;96035;-76
2023/01/26 03:59:57;;;;;;;20.80;14.80;;;;;;;-1.06;72.96;97619.31;108304;1257;102309;-75
2023/01/26 04:08:21;;;;;;;21.80;14.30;;;;;;;-1.13;73.06;97609.75;108212;1257;95631;-76
2023/01/26 04:10:51;;;;;;;24.40;15.50;;;;;;;-1.16;73.08;97604.40;108294;1257;96079;-76
2023/01/26 04:21:39;;;;;;;20.20;13.60;;;;;;;-1.10;73.29;97596.99;108732;1251;96015;-75
2023/01/26 04:24:08;;;;;;;22.30;14.80;;;;;;;-1.08;73.14;97593.13;108652;1251;96067;-75
2023/01/26 04:26:37;;;;;;;25.00;15.30;;;;;;;-1.06;73.17;97595.45;108853;1254;103542;-75
2023/01/26 04:29:07;;;;;;;23.50;15.50;;;;;;;-1.05;73.21;97592.72;108865;1250;101460;-75
2023/01/26 04:31:36;;;;;;;24.70;16.80;;;;;;;-1.04;73.41;97586.77;108808;1251;100356;-75
2023/01/26 04:34:07;;;;;;;21.90;14.80;;;;;;;-1.00;73.42;97586.11;108888;1251;95516;-77
2023/01/26 04:36:35;;;;;;;24.50;16.60;;;;;;;-1.00;73.34;97581.17;108922;1251;95572;-76
2023/01/26 04:39:03;;;;;;;24.40;14.30;;;;;;;-1.01;73.45;97577.66;108881;1251;103561;-75
2023/01/26 04:41:33;;;;;;;25.20;16.10;;;;;;;-1.00;73.20;97579.55;108884;1251;110107;-76
2023/01/26 04:44:01;;;;;;;23.40;14.50;;;;;;;-1.03;73.17;97576.08;108872;1251;99879;-75
2023/01/26 04:46:29;;;;;;;24.70;15.50;;;;;;;-1.03;73.19;97575.58;108634;1251;95631;-75
2023/01/26 04:48:57;;;;;;;24.30;14.60;;;;;;;-1.02;73.10;97575.66;108629;1251;97153;-74
2023/01/26 04:51:25;;;;;;;25.70;16.20;;;;;;;-1.03;73.09;97574.13;108589;1251;103642;-75
2023/01/26 04:53:53;;;;;;;25.20;16.40;;;;;;;-1.02;73.27;97570.39;108901;1251;101666;-77
2023/01/26 04:56:25;;;;;;;29.30;15.90;;;;;;;-1.00;73.18;97567.67;108881;1251;100152;-75
2023/01/26 04:58:54;;;;;;;27.20;16.40;;;;;;;-0.98;73.11;97567.18;108815;1255;95562;-75
2023/01/26 05:01:23;;;;;;;26.60;17.00;;;;;;;-0.99;73.11;97565.31;108891;1251;96031;-75
2023/01/26 05:03:51;;;;;;;26.40;16.40;;;;;;;-0.99;73.15;97563.91;108577;1251;103521;-76
2023/01/26 05:06:19;;;;;;;28.50;18.70;;;;;;;-0.98;73.28;97557.14;108861;1253;101292;-77
2023/01/26 05:08:47;;;;;;;27.00;17.90;;;;;;;-0.97;73.26;97559.45;108827;1251;100081;-76
2023/01/26 05:11:16;;;;;;;32.10;19.00;;;;;;;-0.95;73.41;97558.94;108834;1251;96071;-75
2023/01/26 05:13:46;;;;;;;31.20;20.00;;;;;;;-0.92;73.39;97561.55;108824;1252;96042;-75
2023/01/26 05:16:14;;;;;;;35.40;23.40;;;;;;;-0.87;73.31;97559.16;108890;1251;102529;-76
2023/01/26 05:18:43;;;;;;;34.00;20.20;;;;;;;-0.88;73.12;97557.61;108850;1251;101651;-74
2023/01/26 05:21:11;;;;;;;42.80;21.10;;;;;;;-0.91;73.14;97553.99;108850;1251;100064;-76
2023/01/26 05:23:40;;;;;;;43.90;24.20;;;;;;;-0.90;73.07;97551.43;108859;1251;95976;-77
2023/01/26 05:26:08;;;;;;;48.60;25.40;;;;;;;-0.89;73.09;97546.98;108891;1251;96052;-77
2023/01/26 05:28:37;;;;;;;50.00;25.30;;;;;;;-0.88;73.24;97546.67;108892;1251;103633;-75
2023/01/26 05:31:05;;;;;;;42.80;23.50;;;;;;;-0.87;73.22;97550.80;108868;1251;98955;-75
2023/01/26 05:33:33;;;;;;;37.20;22.90;;;;;;;-0.90;73.29;97550.90;108867;1252;98473;-75
2023/01/26 05:36:06;;;;;;;45.70;23.80;;;;;;;-0.92;73.38;97551.92;108623;1251;95993;-77
2023/01/26 05:38:34;;;;;;;44.30;26.40;;;;;;;-0.91;73.41;97552.91;108590;1253;96033;-76
2023/01/26 05:41:02;;;;;;;43.60;24.70;;;;;;;-0.90;73.38;97553.36;108793;1251;103649;-77
2023/01/26 05:43:30;;;;;;;48.30;27.60;;;;;;;-0.89;73.47;97553.14;108511;1251;101280;-75
2023/01/26 05:45:59;;;;;;;45.50;25.50;;;;;;;-0.88;73.54;97557.08;108844;1251;100097;-77
2023/01/26 05:48:27;;;;;;;38.90;23.60;;;;;;;-0.91;73.64;97559.85;108782;1251;95804;-75
2023/01/26 05:50:56;;;;;;;35.90;21.60;;;;;;;-0.98;73.69;97558.73;108838;1251;96032;-77
2023/01/26 05:53:24;;;;;;;36.10;20.50;;;;;;;-1.03;73.84;97555.61;108880;1251;103830;-76
2023/01/26 05:55:53;;;;;;;42.80;23.80;;;;;;;-1.02;73.90;97558.02;108912;1251;101284;-75
2023/01/26 05:58:21;;;;;;;37.00;20.60;;;;;;;-1.01;73.83;97556.83;108844;1251;98966;-75
2023/01/26 06:00:49;;;;;;;41.50;22.60;;;;;;;-1.02;73.71;97557.33;108839;1251;95525;-75
2023/01/26 06:03:17;;;;;;;39.10;24.40;;;;;;;-1.03;73.77;97552.80;108887;1251;96024;-76
2023/01/26 06:05:52;;;;;;;41.10;25.50;;;;;;;-1.01;73.83;97547.61;108894;1251;103268;-75
2023/01/26 06:08:20;;;;;;;36.50;21.80;;;;;;;-0.98;73.88;97546.02;108859;1251;101163;-75
2023/01/26 06:10:49;;;;;;;37.00;22.00;;;;;;;-0.94;73.89;97549.36;108833;1251;108324;-75
2023/01/26 06:13:17;;;;;;;43.40;24.00;;;;;;;-0.91;73.98;97546.60;108866;1251;95538;-75
2023/01/26 06:15:45;;;;;;;41.00;22.90;;;;;;;-0.89;73.96;97548.20;108869;1251;95992;-74
2023/01/26 06:18:13;;;;;;;40.60;23.40;;;;;;;-0.88;73.89;97547.02;108897;1251;103699;-75
2023/01/26 06:20:41;;;;;;;42.70;23.80;;;;;;;-0.85;74.03;97543.54;108888;1251;101203;-75
2023/01/26 06:23:10;;;;;;;37.90;23.10;;;;;;;-0.82;74.15;97547.36;108833;1251;100061;-76
2023/01/26 06:25:39;;;;;;;38.00;23.90;;;;;;;-0.81;74.23;97544.24;108320;1253;95754;-75
2023/01/26 06:28:07;;;;;;;40.90;22.70;;;;;;;-0.80;74.13;97543.96;108824;1251;96067;-75
2023/01/26 06:30:36;;;;;;;41.70;23.80;;;;;;;-0.77;74.19;97548.84;108589;1250;102633;-76
2023/01/26 06:33:05;;;;;;;42.20;23.00;;;;;;;-0.75;74.33;97546.16;108821;1251;109716;-76
2023/01/26 06:35:34;;;;;;;40.40;23.70;;;;;;;-0.74;74.21;97546.48;108865;1251;108304;-75
2023/01/26 06:38:03;;;;;;;39.30;22.50;;;;;;;-0.73;74.38;97543.02;108643;1252;96545;-74
2023/01/26 06:40:31;;;;;;;41.30;23.50;;;;;;;-0.75;74.40;97541.75;108842;1251;96066;-75
2023/01/26 06:42:59;;;;;;;37.80;23.20;;;;;;;-0.78;74.33;97542.00;108629;1251;103451;-76
2023/01/26 06:45:27;;;;;;;43.90;24.30;;;;;;;-0.78;74.48;97539.93;108873;1251;101395;-75
2023/01/26 06:47:55;;;;;;;42.10;23.90;;;;;;;-0.78;74.56;97537.11;108813;1251;99926;-76
2023/01/26 06:50:27;;;;;;;51.80;27.70;;;;;;;-0.78;74.55;97537.64;108866;1251;95581;-75
2023/01/26 06:52:56;;;;;;;52.00;27.50;;;;;;;-0.75;74.46;97542.86;108637;1252;95785;-77
2023/01/26 06:55:36;;;;;;;63.70;34.00;;;;;;;-0.73;74.47;97544.58;108864;1251;103476;-75
2023/01/26 06:58:04;;;;;;;130.70;56.10;;;;;;;-0.74;74.53;97543.66;108868;1251;110121;-76
2023/01/26 07:00:32;;;;;;;157.50;64.90;;;;;;;-0.74;74.54;97547.70;108653;1251;101179;-75
2023/01/26 07:03:01;;;;;;;126.30;56.50;;;;;;;-0.71;74.68;97549.39;108555;1252;95625;-77
2023/01/26 07:05:29;;;;;;;99.00;47.10;;;;;;;-0.68;74.63;97548.39;108864;1251;96132;-75
2023/01/26 07:07:59;;;;;;;89.40;43.60;;;;;;;-0.67;74.53;97549.67;108831;1251;103201;-76
2023/01/26 07:10:27;;;;;;;90.60;44.40;;;;;;;-0.70;74.60;97546.10;108887;1251;101257;-75
2023/01/26 07:12:55;;;;;;;90.80;45.20;;;;;;;-0.71;74.60;97545.82;108497;1251;100095;-75
2023/01/26 07:15:23;;;;;;;87.20;44.00;;;;;;;-0.70;74.62;97545.38;108533;1251;96348;-75
2023/01/26 07:17:51;;;;;;;77.00;40.80;;;;;;;-0.68;74.65;97544.34;108838;1251;96452;-75
2023/01/26 07:20:19;;;;;;;71.40;39.10;;;;;;;-0.64;74.55;97541.13;108887;1251;103667;-77
2023/01/26 07:22:48;;;;;;;63.20;36.40;;;;;;;-0.60;74.52;97538.96;108851;1251;101001;-75
2023/01/26 07:25:18;;;;;;;64.30;37.10;;;;;;;-0.57;74.57;97539.75;108797;1251;97562;-77
2023/01/26 07:27:46;;;;;;;62.60;36.10;;;;;;;-0.55;74.39;97541.51;108351;1254;96597;-76
2023/01/26 07:30:14;;;;;;;62.60;34.50;;;;;;;-0.58;74.32;97539.66;108852;1251;96015;-76
2023/01/26 07:32:42;;;;;;;53.10;30.60;;;;;;;-0.60;74.41;97539.85;108546;1251;103458;-76
2023/01/26 07:35:10;;;;;;;52.60;30.40;;;;;;;-0.58;74.55;97541.30;108825;1251;100081;-75
2023/01/26 07:37:38;;;;;;;45.50;27.90;;;;;;;-0.59;74.54;97539.55;108656;1251;108654;-76
2023/01/26 07:40:07;;;;;;;53.40;31.10;;;;;;;-0.60;74.60;97543.57;108811;1251;95674;-75
2023/01/26 07:42:35;;;;;;;57.20;32.20;;;;;;;-0.60;74.74;97547.14;108869;1251;97047;-77
2023/01/26 07:45:04;;;;;;;55.00;31.60;;;;;;;-0.60;74.69;97543.90;108858;1251;103227;-76
2023/01/26 07:47:32;;;;;;;54.40;31.20;;;;;;;-0.58;74.71;97541.28;108683;1251;100310;-75
2023/01/26 07:50:00;;;;;;;51.60;29.30;;;;;;;-0.56;74.64;97538.24;108831;1251;99863;-75
2023/01/26 07:52:28;;;;;;;55.70;32.40;;;;;;;-0.52;74.60;97535.48;108803;1251;95597;-75
2023/01/26 07:54:56;;;;;;;63.20;34.50;;;;;;;-0.51;74.60;97532.01;108866;1251;96055;-76
2023/01/26 07:57:24;;;;;;;63.20;34.80;;;;;;;-0.50;74.59;97527.82;108858;1251;103452;-76
2023/01/26 07:59:52;;;;;;;73.10;37.50;;;;;;;-0.47;74.64;97525.96;108854;1251;101066;-75
2023/01/26 08:02:20;;;;;;;75.40;37.60;;;;;;;-0.45;74.63;97518.53;108863;1251;97929;-75
2023/01/26 08:04:49;;;;;;;80.80;40.60;;;;;;;-0.44;74.61;97518.20;108312;1251;95788;-76
2023/01/26 08:07:17;;;;;;;67.10;38.50;;;;;;;-0.40;74.62;97518.38;108762;1251;96292;-75
2023/01/26 08:09:45;;;;;;;79.40;44.00;;;;;;;-0.35;74.66;97513.73;108850;1251;103087;-75
2023/01/26 08:12:13;;;;;;;76.40;42.90;;;;;;;-0.29;74.51;97509.82;108836;1251;101321;-75
2023/01/26 08:14:41;;;;;;;71.50;41.10;;;;;;;-0.23;74.54;97512.30;108654;1257;98793;-76
2023/01/26 08:17:09;;;;;;;84.50;45.70;;;;;;;-0.18;74.52;97514.63;108878;1251;95801;-76
2023/01/26 08:19:37;;;;;;;80.60;43.30;;;;;;;-0.15;74.42;97519.66;108891;1251;96349;-75
2023/01/26 08:22:06;;;;;;;75.70;41.40;;;;;;;-0.17;74.40;97523.05;108861;1251;103260;-76
2023/01/26 08:24:34;;;;;;;75.20;40.40;;;;;;;-0.20;74.48;97519.58;108536;1251;102839;-75
2023/01/26 08:27:02;;;;;;;73.80;39.70;;;;;;;-0.20;74.47;97516.95;108833;1251;98985;-76
2023/01/26 08:29:30;;;;;;;75.60;41.80;;;;;;;-0.18;74.56;97520.95;108820;1251;95828;-75
2023/01/26 08:31:58;;;;;;;77.20;41.50;;;;;;;-0.15;74.50;97518.96;108896;1251;96341;-76
2023/01/26 08:34:26;;;;;;;72.80;41.30;;;;;;;-0.12;74.55;97517.41;108625;1257;103611;-75
2023/01/26 08:36:54;;;;;;;78.70;41.60;;;;;;;-0.09;74.62;97520.45;108638;1251;101303;-75
2023/01/26 08:39:22;;;;;;;83.40;43.30;;;;;;;-0.06;74.55;97525.20;108835;1251;99878;-77
2023/01/26 08:41:50;;;;;;;77.90;43.90;;;;;;;-0.06;74.59;97529.55;108846;1251;95763;-76
2023/01/26 08:44:18;;;;;;;71.40;39.20;;;;;;;-0.04;74.63;97527.77;108900;1251;95999;-76
2023/01/26 08:46:47;;;;;;;64.80;36.10;;;;;;;-0.03;74.52;97531.58;108877;1251;103214;-75
2023/01/26 08:49:15;;;;;;;67.30;36.50;;;;;;;-0.03;74.40;97530.88;108636;1251;101101;-75
2023/01/26 08:51:43;;;;;;;67.40;36.50;;;;;;;0.00;74.37;97529.02;108804;1251;98862;-77
2023/01/26 08:54:11;;;;;;;65.60;35.60;;;;;;;0.04;74.20;97529.76;108827;1251;95534;-76
2023/01/26 08:56:39;;;;;;;70.20;36.10;;;;;;;0.09;74.33;97534.23;108876;1251;95591;-75
2023/01/26 08:59:07;;;;;;;64.70;34.40;;;;;;;0.14;74.19;97535.87;108857;1251;103673;-76
2023/01/26 09:01:36;;;;;;;62.30;33.40;;;;;;;0.17;74.24;97533.23;108857;1251;101287;-76
2023/01/26 09:04:04;;;;;;;62.20;34.50;;;;;;;0.21;74.17;97533.45;108848;1251;99872;-76
2023/01/26 09:06:33;;;;;;;50.10;28.30;;;;;;;0.23;74.23;97533.60;108460;1252;95863;-76
2023/01/26 09:09:01;;;;;;;47.40;25.80;;;;;;;0.22;74.00;97532.75;108830;1251;96060;-76
2023/01/26 09:11:29;;;;;;;50.10;28.10;;;;;;;0.22;74.00;97531.94;108894;1250;103639;-76
2023/01/26 09:13:57;;;;;;;59.20;32.70;;;;;;;0.23;73.98;97531.86;108541;1252;101434;-76
2023/01/26 09:16:25;;;;;;;62.30;35.00;;;;;;;0.18;73.91;97532.08;108838;1251;100400;-76
2023/01/26 09:18:54;;;;;;;61.20;33.10;;;;;;;0.15;73.98;97531.89;108618;1251;95593;-75
2023/01/26 09:21:23;;;;;;;68.70;35.80;;;;;;;0.13;74.19;97529.91;108855;1251;95987;-76
2023/01/26 09:23:52;;;;;;;63.50;36.70;;;;;;;0.18;74.31;97527.81;108878;1251;103411;-76
2023/01/26 09:26:20;;;;;;;61.50;34.20;;;;;;;0.25;74.24;97523.25;108845;1251;101346;-75
2023/01/26 09:28:52;;;;;;;57.00;32.20;;;;;;;0.31;74.06;97523.21;108853;1251;100042;-76
2023/01/26 09:31:20;;;;;;;;;;;;;;;0.37;74.05;97525.15;108837;1251;95635;-76
2023/01/26 09:33:50;;;;;;;51.90;29.80;;;;;;;0.41;73.83;97520.58;108925;1251;96054;-76
2023/01/26 09:36:18;;;;;;;52.60;27.20;;;;;;;0.45;73.70;97516.35;108902;1251;103217;-76
2023/01/26 09:38:46;;;;;;;55.40;30.60;;;;;;;0.48;73.45;97512.81;108631;1251;101784;-76
2023/01/26 09:41:40;;;;;;;59.40;32.60;;;;;;;0.48;73.45;97509.50;108888;1251;98752;-77
2023/01/26 09:44:12;;;;;;;65.20;35.10;;;;;;;0.50;73.65;97506.56;108840;1251;95601;-77
2023/01/26 09:46:55;;;;;;;55.70;29.20;;;;;;;0.56;73.60;97507.24;108944;1251;95584;-76
2023/01/26 09:49:33;;;;;;;56.50;30.60;;;;;;;0.61;73.40;97505.20;108878;1251;103798;-77
2023/01/26 09:52:18;;;;;;;55.80;30.80;;;;;;;0.55;73.17;97495.84;108887;1251;101404;-76
2023/01/26 09:54:52;;;;;;;55.80;32.80;;;;;;;0.45;73.17;97490.63;108646;1251;99953;-76
2023/01/26 09:57:32;;;;;;;54.90;32.10;;;;;;;0.44;73.44;97491.77;108791;1251;95636;-76
2023/01/26 10:00:13;;;;;;;56.10;32.70;;;;;;;0.52;73.47;97488.39;108866;1251;95963;-77
2023/01/26 10:03:03;;;;;;;51.90;30.70;;;;;;;0.60;73.46;97488.46;108381;1251;103530;-76
2023/01/26 10:06:12;;;;;;;53.00;29.90;;;;;;;0.67;73.44;97483.56;108869;1250;101403;-76
2023/01/26 10:08:43;;;;;;;53.90;30.50;;;;;;;0.73;73.34;97477.39;108289;1256;99958;-76
2023/01/26 10:11:35;;;;;;;50.20;30.70;;;;;;;0.80;73.24;97474.46;108336;1257;95723;-77
2023/01/26 10:14:13;;;;;;;48.40;28.10;;;;;;;0.85;73.15;97470.02;108340;1257;96167;-77
2023/01/26 10:16:47;;;;;;;46.50;27.90;;;;;;;0.90;72.99;97463.56;108217;1257;103415;-77
2023/01/26 10:19:21;;;;;;;50.50;29.10;;;;;;;0.94;72.86;97460.89;108319;1256;101643;-76
2023/01/26 10:21:51;;;;;;;45.10;26.40;;;;;;;0.99;72.71;97459.84;108317;1256;100100;-76
2023/01/26 10:24:23;;;;;;;46.40;26.20;;;;;;;1.02;72.42;97451.40;108311;1256;95660;-77
2023/01/26 10:26:57;;;;;;;42.80;25.10;;;;;;;1.02;72.26;97448.88;108374;1256;96174;-77
2023/01/26 10:29:25;;;;;;;43.20;25.00;;;;;;;1.02;72.14;97449.27;108329;1257;103481;-76
2023/01/26 10:31:54;;;;;;;46.60;25.70;;;;;;;0.98;72.07;97446.44;108200;1256;102346;-76
2023/01/26 10:34:27;;;;;;;41.70;24.20;;;;;;;1.01;72.13;97446.50;108333;1256;99732;-76
2023/01/26 10:37:22;;;;;;;39.50;23.30;;;;;;;1.06;72.24;97447.43;108310;1257;96046;-77
2023/01/26 10:40:17;;;;;;;41.10;24.60;;;;;;;1.09;72.15;97441.30;108324;1257;96044;-76
2023/01/26 10:42:57;;;;;;;43.70;24.60;;;;;;;1.11;71.89;97438.09;107956;1264;103233;-76
2023/01/26 10:45:28;;;;;;;45.50;25.40;;;;;;;1.13;71.76;97432.42;108079;1259;101335;-76
2023/01/26 10:48:17;;;;;;;43.60;25.60;;;;;;;1.15;71.61;97428.80;108239;1259;99482;-77
2023/01/26 10:50:47;;;;;;;47.60;27.40;;;;;;;1.17;71.50;97428.26;108034;1259;96063;-76
2023/01/26 10:53:24;;;;;;;51.10;28.10;;;;;;;1.17;71.53;97427.95;108281;1259;96215;-77
2023/01/26 10:56:07;;;;;;;50.80;27.60;;;;;;;1.16;71.53;97423.27;108179;1259;104260;-77
2023/01/26 10:58:49;;;;;;;43.80;25.80;;;;;;;1.15;71.20;97420.48;108233;1259;101298;-77
2023/01/26 11:01:26;;;;;;;44.20;25.00;;;;;;;1.14;71.20;97418.98;108141;1259;98288;-77
2023/01/26 11:04:07;;;;;;;42.80;24.40;;;;;;;1.16;71.26;97417.58;108210;1259;95943;-76
2023/01/26 11:06:36;;;;;;;47.10;25.90;;;;;;;1.20;71.34;97414.02;108150;1259;96070;-76
2023/01/26 11:09:11;;;;;;;49.00;28.00;;;;;;;1.23;71.39;97413.27;108286;1259;102264;-77
2023/01/26 11:11:40;;;;;;;49.10;25.70;;;;;;;1.27;71.32;97411.80;108287;1259;101630;-77
2023/01/26 11:14:19;;;;;;;47.20;24.60;;;;;;;1.31;71.17;97408.96;107998;1259;100228;-77
2023/01/26 11:16:50;;;;;;;36.60;20.40;;;;;;;1.32;70.84;97406.73;108099;1262;95799;-76
2023/01/26 11:19:54;;;;;;;37.70;20.60;;;;;;;1.26;70.57;97404.14;108279;1254;95747;-77
2023/01/26 11:22:46;;;;;;;39.40;21.50;;;;;;;1.25;70.60;97399.30;108111;1262;102190;-77
2023/01/26 11:25:46;;;;;;;34.30;19.90;;;;;;;1.29;70.63;97402.58;108115;1262;100051;-77
2023/01/26 11:28:39;;;;;;;40.70;21.40;;;;;;;1.32;70.43;97399.83;107729;1267;100101;-77
2023/01/26 11:31:22;;;;;;;41.20;22.20;;;;;;;1.28;70.51;97392.39;107656;1268;95772;-77
2023/01/26 11:34:02;;;;;;;37.30;22.20;;;;;;;1.31;70.27;97391.59;107695;1267;96648;-77
2023/01/26 11:37:09;;;;;;;44.10;23.10;;;;;;;1.33;70.28;97392.81;107704;1267;103410;-77
2023/01/26 11:39:52;;;;;;;36.60;20.90;;;;;;;1.36;70.40;97384.30;107145;1273;101459;-76
2023/01/26 11:42:26;;;;;;;36.20;20.40;;;;;;;1.39;70.15;97379.19;107134;1273;99156;-77
2023/01/26 11:45:32;;;;;;;36.60;21.30;;;;;;;1.37;69.73;97370.94;107149;1273;95881;-76
2023/01/26 11:48:09;;;;;;;35.10;20.10;;;;;;;1.37;69.64;97366.68;107221;1273;96094;-77
2023/01/26 11:50:48;;;;;;;37.80;20.90;;;;;;;1.39;69.61;97366.61;107298;1272;103376;-77
2023/01/26 11:53:39;;;;;;;34.90;20.50;;;;;;;1.42;69.64;97366.73;107338;1272;101411;-77
2023/01/26 11:56:14;;;;;;;38.30;19.80;;;;;;;1.43;69.55;97363.55;107302;1273;98902;-77
2023/01/26 11:58:48;;;;;;;35.20;20.90;;;;;;;1.41;69.38;97368.98;107238;1265;95732;-77
2023/01/26 12:01:37;;;;;;;42.30;22.90;;;;;;;1.42;69.57;97366.94;107923;1264;96523;-77
2023/01/26 12:04:05;;;;;;;35.70;21.60;;;;;;;1.46;69.45;97358.30;107789;1264;103460;-76
2023/01/26 12:06:40;;;;;;;40.60;22.80;;;;;;;1.44;69.19;97357.58;108291;1257;101018;-77
2023/01/26 12:09:48;;;;;;;39.30;22.90;;;;;;;1.44;69.32;97354.41;108109;1257;99975;-77
2023/01/26 12:12:24;;;;;;;36.90;22.00;;;;;;;1.50;69.26;97348.13;107873;1265;95684;-76
2023/01/26 12:15:06;;;;;;;37.30;20.30;;;;;;;1.51;69.15;97345.94;108211;1259;96128;-77